Mount Tabor, North Carolina
Current Conditions -  °F | °C
As of 3:54 PM on Saturday 25 Oct 2014 (Local Time) from KINT Reporting Station
Clear Clear  
Wind Chill: 73°   Ceiling: Unl
Heat Index: 73°   Visibility: 10mi
Dew Point: 31°   Wind: 7mph
Humidity: 21%   Direction: NA
Pressure: 29.94"   Gusts: NA
Location:  36.1422°N, 80.3221°W
Report Text: KINT 251954Z AUTO VRB06KT 10SM CLR 23/M01 A2994 RMK AO2 SLP133 T02281006
Loading
Personal Weather Stations






























Interactive Weather Map
Tropical Storm Tracking
New forecast layout! Learn more

10-Day Weather Forecast

Advertisements
Track Severe Weather on mobile